Time;durP1;ratioP1;P1;durP2;ratioP2;P2;SDS_P1;SDS_P2;PMS_P1;PMS_P2;Temp;Humidity;BMP_temperature;BMP_pressure;BME280_temperature;BME280_humidity;BME280_pressure;Samples;Min_cycle;Max_cycle;Signal;HPM_P1;HPM_P2
2021/04/26 00:00:37;;;;;;;8.17;2.07;;;6.70;99.90;;;;;;5030753;28;22153;-51
2021/04/26 00:03:04;;;;;;;11.77;1.87;;;6.60;99.90;;;;;;5031548;28;20232;-51
2021/04/26 00:05:30;;;;;;;7.90;1.87;;;6.60;99.90;;;;;;5031161;28;20288;-51
2021/04/26 00:07:57;;;;;;;6.70;2.10;;;6.60;99.90;;;;;;5029797;28;20233;-51
2021/04/26 00:10:24;;;;;;;6.50;1.83;;;6.60;99.90;;;;;;5029910;28;20965;-51
2021/04/26 00:12:51;;;;;;;2.13;1.50;;;6.60;99.90;;;;;;5038288;28;20223;-52
2021/04/26 00:15:38;;;;;;;5.80;1.60;;;6.60;99.90;;;;;;5031364;28;20652;-51
2021/04/26 00:18:04;;;;;;;2.53;1.20;;;6.60;99.90;;;;;;5031045;28;20238;-51
2021/04/26 00:20:31;;;;;;;4.90;1.63;;;6.50;99.90;;;;;;5029329;28;20287;-51
2021/04/26 00:22:59;;;;;;;2.90;1.57;;;6.40;99.90;;;;;;5028920;28;20256;-51
2021/04/26 00:25:26;;;;;;;5.90;1.53;;;6.50;99.90;;;;;;5033330;28;20275;-51
2021/04/26 00:27:53;;;;;;;4.63;2.03;;;6.50;99.90;;;;;;5034516;28;20252;-50
2021/04/26 00:30:22;;;;;;;6.50;1.97;;;6.40;99.90;;;;;;5033251;28;20676;-51
2021/04/26 00:32:50;;;;;;;3.20;1.50;;;6.40;99.90;;;;;;5030928;28;20288;-51
2021/04/26 00:35:17;;;;;;;6.30;1.57;;;6.30;99.90;;;;;;5033645;28;20209;-51
2021/04/26 00:37:45;;;;;;;6.13;1.63;;;6.30;99.90;;;;;;5030054;28;20578;-51
2021/04/26 00:40:12;;;;;;;3.80;1.50;;;6.30;99.90;;;;;;5031354;28;20277;-51
2021/04/26 00:42:40;;;;;;;9.53;1.90;;;6.20;99.90;;;;;;5030425;28;20642;-51
2021/04/26 00:45:12;;;;;;;8.00;1.67;;;6.30;99.90;;;;;;5031349;28;20359;-51
2021/04/26 00:47:40;;;;;;;4.40;1.50;;;6.30;99.90;;;;;;5028133;28;20212;-51
2021/04/26 00:50:10;;;;;;;5.53;1.43;;;6.30;99.90;;;;;;5031026;28;20655;-49
2021/04/26 00:52:37;;;;;;;5.53;1.90;;;6.20;99.90;;;;;;5032221;28;20804;-50
2021/04/26 00:55:05;;;;;;;4.73;1.60;;;6.20;99.90;;;;;;5035600;28;20283;-49
2021/04/26 00:57:31;;;;;;;5.40;1.77;;;6.10;99.90;;;;;;5035235;28;20209;-48
2021/04/26 00:59:58;;;;;;;8.40;2.20;;;6.00;99.90;;;;;;5033457;28;20280;-48
2021/04/26 01:02:25;;;;;;;2.80;1.73;;;6.10;99.90;;;;;;5027496;28;20202;-48
2021/04/26 01:04:55;;;;;;;3.73;2.57;;;6.10;99.90;;;;;;5032658;28;20236;-48
2021/04/26 01:07:22;;;;;;;6.03;2.20;;;6.20;99.90;;;;;;5033014;28;20284;-49
2021/04/26 01:09:48;;;;;;;5.73;1.77;;;6.10;99.90;;;;;;5029903;28;20282;-49
2021/04/26 01:12:29;;;;;;;5.60;1.87;;;6.10;99.90;;;;;;5036356;28;20765;-49
2021/04/26 01:15:14;;;;;;;5.03;1.80;;;6.00;99.90;;;;;;5031880;28;21009;-51
2021/04/26 01:17:45;;;;;;;5.30;2.13;;;5.90;99.90;;;;;;5035049;28;20815;-49
2021/04/26 01:20:45;;;;;;;3.67;2.07;;;6.00;99.90;;;;;;5031502;28;20278;-51
2021/04/26 01:23:49;;;;;;;6.93;1.80;;;5.90;99.90;;;;;;5034329;28;20283;-51
2021/04/26 01:26:34;;;;;;;5.77;1.67;;;5.90;99.90;;;;;;5032162;28;20211;-52
2021/04/26 01:29:18;;;;;;;5.87;1.60;;;5.90;99.90;;;;;;5032735;28;20230;-51
2021/04/26 01:31:55;;;;;;;4.73;1.77;;;5.80;99.90;;;;;;5031061;28;20246;-51
2021/04/26 01:34:26;;;;;;;4.73;1.77;;;5.80;99.90;;;;;;5028117;28;20275;-50
2021/04/26 01:36:54;;;;;;;2.70;1.40;;;5.80;99.90;;;;;;5029684;28;20335;-50
2021/04/26 01:39:22;;;;;;;5.77;1.50;;;5.80;99.90;;;;;;5029429;28;20254;-50
2021/04/26 01:41:49;;;;;;;2.87;1.70;;;5.70;99.90;;;;;;5030071;28;20243;-51
2021/04/26 01:44:16;;;;;;;5.00;1.80;;;5.50;99.90;;;;;;5026422;28;20420;-51
2021/04/26 01:46:44;;;;;;;4.53;1.60;;;5.50;99.90;;;;;;5032029;28;20317;-48
2021/04/26 01:49:12;;;;;;;3.17;1.93;;;5.50;99.90;;;;;;5031109;28;20695;-51
2021/04/26 01:51:40;;;;;;;3.43;1.90;;;5.50;99.90;;;;;;5030152;28;20200;-49
2021/04/26 01:54:07;;;;;;;3.60;1.83;;;5.50;99.90;;;;;;5031559;28;20227;-48
2021/04/26 01:56:35;;;;;;;6.97;2.20;;;5.50;99.90;;;;;;5031733;28;20281;-48
2021/04/26 01:59:03;;;;;;;5.87;1.83;;;5.40;99.90;;;;;;5031731;28;20199;-49
2021/04/26 02:01:31;;;;;;;8.10;1.60;;;5.50;99.90;;;;;;5026575;28;20272;-49
2021/04/26 02:04:04;;;;;;;3.30;1.33;;;5.50;99.90;;;;;;5034120;28;20284;-49
2021/04/26 02:06:32;;;;;;;9.97;1.87;;;5.40;99.90;;;;;;5030279;28;20256;-49
2021/04/26 02:09:00;;;;;;;1.97;1.40;;;5.40;99.90;;;;;;5029240;28;20201;-48
2021/04/26 02:11:27;;;;;;;4.17;2.00;;;5.50;99.90;;;;;;5024765;28;20276;-49
2021/04/26 02:13:54;;;;;;;2.17;1.70;;;5.50;99.90;;;;;;5028130;28;20373;-49
2021/04/26 02:16:22;;;;;;;5.03;1.83;;;5.50;99.90;;;;;;5031187;28;20607;-48
2021/04/26 02:18:49;;;;;;;5.03;1.87;;;5.40;99.90;;;;;;5031857;28;20266;-49
2021/04/26 02:21:15;;;;;;;4.10;1.73;;;5.30;99.90;;;;;;5035183;28;20744;-49
2021/04/26 02:23:41;;;;;;;6.17;1.83;;;5.20;99.90;;;;;;5030347;28;20204;-48
2021/04/26 02:26:07;;;;;;;2.13;1.43;;;5.30;99.90;;;;;;5035602;28;20212;-51
2021/04/26 02:28:34;;;;;;;4.13;1.43;;;5.20;99.90;;;;;;5033894;28;20629;-49
2021/04/26 02:31:00;;;;;;;8.40;1.70;;;5.20;99.90;;;;;;5033847;28;20203;-49
2021/04/26 02:33:34;;;;;;;7.03;2.37;;;5.20;99.90;;;;;;5031907;28;20230;-49
2021/04/26 02:36:14;;;;;;;3.73;1.43;;;5.10;99.90;;;;;;5029519;28;20195;-49
2021/04/26 02:38:49;;;;;;;3.63;1.83;;;5.20;99.90;;;;;;5029341;28;20260;-49
2021/04/26 02:41:19;;;;;;;3.90;1.40;;;5.20;99.90;;;;;;5033055;28;20199;-49
2021/04/26 02:43:49;;;;;;;4.60;1.53;;;5.10;99.90;;;;;;5032133;28;20231;-50
2021/04/26 02:46:21;;;;;;;3.03;2.10;;;5.10;99.90;;;;;;5033422;28;20207;-49
2021/04/26 02:48:48;;;;;;;6.47;1.70;;;5.00;99.90;;;;;;5031464;28;20228;-49
2021/04/26 02:51:16;;;;;;;5.33;1.90;;;5.10;99.90;;;;;;5031878;28;20647;-49
2021/04/26 02:53:43;;;;;;;4.37;1.50;;;5.10;99.90;;;;;;5037978;28;20235;-50
2021/04/26 02:56:12;;;;;;;4.87;1.63;;;5.10;99.90;;;;;;5035041;28;20317;-50
2021/04/26 02:58:39;;;;;;;4.03;1.57;;;5.30;99.90;;;;;;5039691;28;20271;-49
2021/04/26 03:01:07;;;;;;;2.17;1.40;;;5.20;99.90;;;;;;5030205;28;20312;-49
2021/04/26 03:03:36;;;;;;;5.80;1.80;;;5.00;99.90;;;;;;5031297;28;20245;-50
2021/04/26 03:06:03;;;;;;;3.90;1.60;;;5.10;99.90;;;;;;5029544;28;20630;-49
2021/04/26 03:08:30;;;;;;;4.50;1.30;;;5.00;99.90;;;;;;5031492;28;20293;-49
2021/04/26 03:10:58;;;;;;;4.77;1.70;;;5.00;99.90;;;;;;5031228;28;20261;-49
2021/04/26 03:13:31;;;;;;;2.80;1.87;;;5.00;99.90;;;;;;5031915;28;20264;-49
2021/04/26 03:15:58;;;;;;;3.90;1.70;;;5.00;99.90;;;;;;5030067;28;20264;-50
2021/04/26 03:18:25;;;;;;;3.60;1.27;;;4.90;99.90;;;;;;5035928;28;20231;-49
2021/04/26 03:20:52;;;;;;;4.87;1.77;;;4.90;99.90;;;;;;5026460;28;20218;-49
2021/04/26 03:23:24;;;;;;;2.23;1.70;;;4.90;99.90;;;;;;5031371;28;20283;-50
2021/04/26 03:25:54;;;;;;;7.00;1.80;;;5.00;99.90;;;;;;5038701;28;20279;-49
2021/04/26 03:28:21;;;;;;;7.23;1.90;;;4.90;99.90;;;;;;5037289;28;20275;-49
2021/04/26 03:30:48;;;;;;;2.13;1.57;;;4.90;99.90;;;;;;5032165;28;20272;-49
2021/04/26 03:33:15;;;;;;;4.30;1.63;;;4.80;99.90;;;;;;5031113;28;20670;-49
2021/04/26 03:35:43;;;;;;;2.90;1.40;;;4.80;99.90;;;;;;5035054;28;20278;-49
2021/04/26 03:38:11;;;;;;;4.73;2.00;;;4.80;99.90;;;;;;5029222;28;20211;-49
2021/04/26 03:40:38;;;;;;;4.93;1.87;;;4.80;99.90;;;;;;5030085;28;20260;-50
2021/04/26 03:43:05;;;;;;;6.30;2.03;;;4.80;99.90;;;;;;5032032;28;20223;-49
2021/04/26 03:45:31;;;;;;;2.67;1.40;;;4.80;99.90;;;;;;5033806;28;20197;-49
2021/04/26 03:47:58;;;;;;;3.70;1.90;;;4.70;99.90;;;;;;5036110;28;20200;-49
2021/04/26 03:50:25;;;;;;;5.67;2.03;;;4.70;99.90;;;;;;5033691;28;20296;-49
2021/04/26 03:52:52;;;;;;;6.77;2.00;;;4.70;99.90;;;;;;5030783;28;20202;-50
2021/04/26 03:55:21;;;;;;;6.20;1.70;;;4.60;99.90;;;;;;5032597;28;20237;-50
2021/04/26 03:57:48;;;;;;;4.60;1.80;;;4.60;99.90;;;;;;5032897;28;20239;-49
2021/04/26 04:00:16;;;;;;;4.47;1.90;;;4.70;99.90;;;;;;5029879;28;20284;-51
2021/04/26 04:02:42;;;;;;;4.20;1.63;;;4.80;99.90;;;;;;5034198;28;20302;-50
2021/04/26 04:05:10;;;;;;;9.90;1.93;;;4.70;99.90;;;;;;5031019;28;20206;-51
2021/04/26 04:07:36;;;;;;;4.00;1.43;;;4.60;99.90;;;;;;5031945;28;20224;-50
2021/04/26 04:10:05;;;;;;;4.33;2.00;;;4.70;99.90;;;;;;5033280;28;20234;-51
2021/04/26 04:12:31;;;;;;;3.60;1.60;;;4.50;99.90;;;;;;5033386;28;20266;-50
2021/04/26 04:14:58;;;;;;;3.80;1.77;;;4.50;99.90;;;;;;5029532;28;20200;-50
2021/04/26 04:17:25;;;;;;;5.43;1.73;;;4.50;99.90;;;;;;5029191;28;20205;-50
2021/04/26 04:19:52;;;;;;;3.47;1.80;;;4.50;99.90;;;;;;5034246;28;20270;-51
2021/04/26 04:22:19;;;;;;;4.47;1.53;;;4.60;99.90;;;;;;5035104;28;20222;-50
2021/04/26 04:24:45;;;;;;;4.60;2.40;;;4.40;99.90;;;;;;5038571;28;20571;-50
2021/04/26 04:27:12;;;;;;;4.23;1.87;;;4.50;99.90;;;;;;5035544;28;20710;-50
2021/04/26 04:29:39;;;;;;;2.00;1.60;;;4.60;99.90;;;;;;5029586;28;20312;-50
2021/04/26 04:32:05;;;;;;;3.20;1.70;;;4.60;99.90;;;;;;5032730;28;20630;-49
2021/04/26 04:34:33;;;;;;;6.93;2.20;;;4.60;99.90;;;;;;5032581;28;20197;-50
2021/04/26 04:37:00;;;;;;;3.10;1.57;;;4.70;99.90;;;;;;5027788;28;20309;-51
2021/04/26 04:39:26;;;;;;;1.83;1.57;;;4.60;99.90;;;;;;5033427;28;20270;-50
2021/04/26 04:41:53;;;;;;;3.60;1.40;;;4.60;99.90;;;;;;5026116;28;20264;-50
2021/04/26 04:44:19;;;;;;;2.50;1.47;;;4.60;99.90;;;;;;5031144;28;20231;-51
2021/04/26 04:46:45;;;;;;;2.63;1.70;;;4.60;99.90;;;;;;5031251;28;20706;-51
2021/04/26 04:49:12;;;;;;;4.47;1.97;;;4.50;99.90;;;;;;5033885;28;20228;-50
2021/04/26 04:51:39;;;;;;;6.83;2.07;;;4.40;99.90;;;;;;5027133;28;20676;-51
2021/04/26 04:54:05;;;;;;;2.30;1.50;;;4.60;99.90;;;;;;5034842;28;20329;-50
2021/04/26 04:56:32;;;;;;;2.77;1.77;;;4.70;99.90;;;;;;5034616;28;20367;-51
2021/04/26 04:58:58;;;;;;;6.67;1.90;;;4.60;99.90;;;;;;5034455;28;20240;-51
2021/04/26 05:01:24;;;;;;;6.43;1.60;;;4.60;99.90;;;;;;5035158;28;20206;-51
2021/04/26 05:03:51;;;;;;;5.33;1.60;;;4.60;99.90;;;;;;5032598;28;20295;-51
2021/04/26 05:06:17;;;;;;;5.40;1.70;;;4.60;99.90;;;;;;5030676;28;20201;-51
2021/04/26 05:08:44;;;;;;;2.80;1.73;;;4.60;99.90;;;;;;5030146;28;20801;-50
2021/04/26 05:11:10;;;;;;;3.70;1.83;;;4.60;99.90;;;;;;5032051;28;20643;-50
2021/04/26 05:13:36;;;;;;;2.67;1.60;;;4.60;99.90;;;;;;5031018;28;20663;-51
2021/04/26 05:16:03;;;;;;;4.67;1.67;;;4.50;99.90;;;;;;5031328;28;20238;-50
2021/04/26 05:18:31;;;;;;;2.87;1.43;;;4.60;99.90;;;;;;5032908;28;20313;-51
2021/04/26 05:20:58;;;;;;;4.63;1.53;;;4.60;99.90;;;;;;5026374;28;20230;-50
2021/04/26 05:23:25;;;;;;;4.57;1.70;;;4.60;99.90;;;;;;5028951;28;20212;-50
2021/04/26 05:25:51;;;;;;;2.97;1.50;;;4.60;99.90;;;;;;5033701;28;20224;-50
2021/04/26 05:28:17;;;;;;;5.80;1.53;;;4.50;99.90;;;;;;5034804;28;20321;-50
2021/04/26 05:30:44;;;;;;;2.93;1.80;;;4.50;99.90;;;;;;5028351;28;20264;-50
2021/04/26 05:33:11;;;;;;;6.53;2.23;;;4.50;99.90;;;;;;5029832;28;20266;-50
2021/04/26 05:35:37;;;;;;;4.53;2.00;;;4.60;99.90;;;;;;5027698;28;20261;-49
2021/04/26 05:38:15;;;;;;;4.23;1.80;;;4.80;99.90;;;;;;5029170;28;20738;-50
2021/04/26 05:40:42;;;;;;;3.50;1.67;;;4.80;99.90;;;;;;5024306;28;20197;-51
2021/04/26 05:43:08;;;;;;;8.53;2.00;;;4.70;99.90;;;;;;5034525;28;20627;-50
2021/04/26 05:45:35;;;;;;;4.57;1.90;;;4.90;99.90;;;;;;5028403;28;20596;-50
2021/04/26 05:48:03;;;;;;;3.53;1.40;;;5.00;99.90;;;;;;5030252;28;20710;-51
2021/04/26 05:50:33;;;;;;;4.67;1.60;;;5.20;99.90;;;;;;5029317;28;20206;-51
2021/04/26 05:52:59;;;;;;;4.17;1.60;;;5.20;99.90;;;;;;5033742;28;20238;-50
2021/04/26 05:55:26;;;;;;;4.60;1.63;;;5.20;99.90;;;;;;5038520;28;20207;-50
2021/04/26 05:57:52;;;;;;;3.67;1.37;;;5.40;99.90;;;;;;5037021;28;20317;-50
2021/04/26 06:00:19;;;;;;;6.50;2.17;;;5.40;99.90;;;;;;5027383;28;20590;-50
2021/04/26 06:02:45;;;;;;;7.87;2.63;;;5.50;99.90;;;;;;5029674;28;20192;-50
2021/04/26 06:05:12;;;;;;;3.53;1.93;;;5.50;99.90;;;;;;5032110;28;20201;-52
2021/04/26 06:07:39;;;;;;;4.87;1.87;;;5.70;99.90;;;;;;5035202;28;20254;-50
2021/04/26 06:10:06;;;;;;;6.63;2.23;;;5.70;99.90;;;;;;5035540;28;20222;-49
2021/04/26 06:12:33;;;;;;;2.90;1.83;;;5.80;99.90;;;;;;5019924;28;20236;-49
2021/04/26 06:15:00;;;;;;;4.50;1.50;;;5.90;99.90;;;;;;5040971;28;20230;-52
2021/04/26 06:17:26;;;;;;;3.13;1.43;;;6.00;99.90;;;;;;5032138;28;20287;-50
2021/04/26 06:19:53;;;;;;;2.03;1.47;;;6.00;99.90;;;;;;5031475;28;20935;-50
2021/04/26 06:22:19;;;;;;;2.27;1.73;;;5.90;99.90;;;;;;5030388;28;20250;-50
2021/04/26 06:24:45;;;;;;;5.03;2.00;;;6.10;99.90;;;;;;5028406;28;20704;-50
2021/04/26 06:27:12;;;;;;;3.67;1.73;;;6.30;99.90;;;;;;5038832;28;20243;-51
2021/04/26 06:29:38;;;;;;;3.13;1.50;;;6.30;99.90;;;;;;5035523;28;20244;-50
2021/04/26 06:32:05;;;;;;;2.50;2.03;;;6.50;99.90;;;;;;5030887;28;20624;-50
2021/04/26 06:34:31;;;;;;;3.50;1.93;;;6.70;99.90;;;;;;5032481;28;20251;-50
2021/04/26 06:36:58;;;;;;;2.50;1.50;;;6.50;99.90;;;;;;5036450;28;20541;-50
2021/04/26 06:39:25;;;;;;;4.03;1.83;;;6.70;99.90;;;;;;5030751;28;20203;-51
2021/04/26 06:41:51;;;;;;;3.00;1.60;;;6.60;99.90;;;;;;5032753;28;20212;-50
2021/04/26 06:44:17;;;;;;;4.30;1.60;;;6.80;99.90;;;;;;5035676;28;20303;-49
2021/04/26 06:46:43;;;;;;;5.47;1.57;;;6.70;99.90;;;;;;5025535;28;20310;-50
2021/04/26 06:49:10;;;;;;;7.57;1.93;;;6.90;99.90;;;;;;5038142;28;20282;-50
2021/04/26 06:51:36;;;;;;;3.00;1.90;;;7.10;99.90;;;;;;5035059;28;20208;-50
2021/04/26 06:54:03;;;;;;;3.60;1.80;;;7.00;99.90;;;;;;5034338;28;20601;-50
2021/04/26 06:56:30;;;;;;;2.97;1.70;;;7.20;99.90;;;;;;5026046;28;20587;-50
2021/04/26 06:58:57;;;;;;;10.23;2.20;;;7.40;99.90;;;;;;5035038;28;20263;-50
2021/04/26 07:01:23;;;;;;;2.83;1.83;;;7.70;99.80;;;;;;5032136;28;20195;-50
2021/04/26 07:03:49;;;;;;;4.23;1.73;;;7.90;99.90;;;;;;5029019;28;20652;-51
2021/04/26 07:06:17;;;;;;;3.67;1.80;;;8.30;93.90;;;;;;5032254;28;20286;-50
2021/04/26 07:08:43;;;;;;;7.83;1.90;;;8.70;95.30;;;;;;5041983;28;20690;-50
2021/04/26 07:11:09;;;;;;;6.43;1.90;;;9.10;90.10;;;;;;5040416;28;20308;-50
2021/04/26 07:13:36;;;;;;;5.17;2.77;;;9.00;90.50;;;;;;5042036;28;20234;-50
2021/04/26 07:16:03;;;;;;;7.00;2.10;;;9.40;86.90;;;;;;5034677;28;20542;-50
2021/04/26 07:18:29;;;;;;;4.83;1.50;;;9.40;83.70;;;;;;5037956;28;20537;-50
2021/04/26 07:20:56;;;;;;;3.80;1.97;;;9.50;85.20;;;;;;5035555;28;20202;-50
2021/04/26 07:23:22;;;;;;;2.57;2.03;;;9.50;80.50;;;;;;5035707;28;20195;-52
2021/04/26 07:25:49;;;;;;;5.33;1.93;;;9.30;81.80;;;;;;5034722;28;20202;-50
2021/04/26 07:28:15;;;;;;;4.83;2.00;;;9.40;79.40;;;;;;5040730;28;20628;-51
2021/04/26 07:30:41;;;;;;;3.17;2.00;;;9.30;82.00;;;;;;5032716;28;20250;-50
2021/04/26 07:33:08;;;;;;;5.70;2.83;;;9.40;77.60;;;;;;5046406;28;20206;-51
2021/04/26 07:35:34;;;;;;;5.07;1.90;;;9.50;75.20;;;;;;5040642;28;20470;-51
2021/04/26 07:38:00;;;;;;;2.33;1.57;;;9.90;72.50;;;;;;5030220;28;20564;-50
2021/04/26 07:40:27;;;;;;;5.73;2.20;;;9.90;71.60;;;;;;5033327;28;20246;-50
2021/04/26 07:42:53;;;;;;;5.17;1.67;;;9.90;72.80;;;;;;5029742;28;20196;-50
2021/04/26 07:45:23;;;;;;;5.60;1.93;;;9.90;72.70;;;;;;5039137;28;20225;-50
2021/04/26 07:47:51;;;;;;;2.03;1.60;;;9.80;72.20;;;;;;5038332;28;20633;-50
2021/04/26 07:50:19;;;;;;;3.10;2.17;;;10.00;70.80;;;;;;5036498;28;20683;-50
2021/04/26 07:52:46;;;;;;;3.97;2.40;;;9.90;71.50;;;;;;5036513;28;20553;-50
2021/04/26 07:55:13;;;;;;;4.43;2.13;;;10.40;67.40;;;;;;5032639;28;20691;-50
2021/04/26 07:57:40;;;;;;;4.40;1.77;;;10.80;64.10;;;;;;5042565;28;20207;-51
2021/04/26 08:00:07;;;;;;;5.23;1.67;;;11.20;63.90;;;;;;5033288;28;20614;-50
2021/04/26 08:02:34;;;;;;;5.37;2.30;;;11.20;57.40;;;;;;5030580;28;20210;-51
2021/04/26 08:05:01;;;;;;;3.33;1.80;;;11.10;58.00;;;;;;5030862;28;20216;-51
2021/04/26 08:07:27;;;;;;;2.93;1.70;;;10.90;60.30;;;;;;5033977;28;20222;-51
2021/04/26 08:09:53;;;;;;;7.83;2.30;;;11.10;59.00;;;;;;5030709;28;20225;-50
2021/04/26 08:12:20;;;;;;;4.17;1.70;;;11.30;57.50;;;;;;5032167;28;20329;-50
2021/04/26 08:14:48;;;;;;;3.27;1.70;;;11.20;56.10;;;;;;5032717;28;20247;-50
2021/04/26 08:17:14;;;;;;;5.37;2.23;;;11.40;56.80;;;;;;5028876;28;20236;-51
2021/04/26 08:19:41;;;;;;;4.47;1.90;;;11.90;56.10;;;;;;5037617;28;20287;-51
2021/04/26 08:22:08;;;;;;;3.67;1.90;;;12.00;54.10;;;;;;5035018;28;20213;-58
2021/04/26 08:24:34;;;;;;;4.30;1.50;;;12.00;52.50;;;;;;5035160;28;20230;-57
2021/04/26 08:27:01;;;;;;;4.73;1.97;;;12.30;51.30;;;;;;5034336;28;20229;-60
2021/04/26 08:29:27;;;;;;;4.57;2.10;;;12.70;48.80;;;;;;5029220;28;20233;-58
2021/04/26 08:31:53;;;;;;;5.93;2.50;;;12.50;49.00;;;;;;5037126;28;20196;-60
2021/04/26 08:34:20;;;;;;;104.07;13.07;;;12.10;47.60;;;;;;5035925;28;20200;-58
2021/04/26 08:36:47;;;;;;;4.33;1.77;;;12.40;48.80;;;;;;5038716;28;20201;-58
2021/04/26 08:39:15;;;;;;;7.03;2.80;;;12.20;45.50;;;;;;5028933;28;20464;-58
2021/04/26 08:41:42;;;;;;;171.90;20.80;;;12.30;47.20;;;;;;5032165;28;20227;-51
2021/04/26 08:44:09;;;;;;;3.10;2.10;;;12.30;48.60;;;;;;5031015;28;21005;-51
2021/04/26 08:46:40;;;;;;;5.90;1.83;;;12.80;44.90;;;;;;5038984;28;20201;-51
2021/04/26 08:49:09;;;;;;;2.93;1.70;;;12.80;44.80;;;;;;5037909;28;20683;-51
2021/04/26 08:51:37;;;;;;;2.57;2.00;;;13.00;42.60;;;;;;5034922;28;20604;-51
2021/04/26 08:54:06;;;;;;;33.20;6.27;;;13.50;41.70;;;;;;5040519;28;20207;-50
2021/04/26 08:56:33;;;;;;;16.97;4.17;;;13.60;38.80;;;;;;5034252;28;20258;-50
2021/04/26 08:59:00;;;;;;;14.33;2.50;;;13.70;37.80;;;;;;5038054;28;20242;-50
2021/04/26 09:01:27;;;;;;;36.53;5.60;;;13.40;37.50;;;;;;5036098;28;20310;-50
2021/04/26 09:04:05;;;;;;;9.73;2.80;;;13.60;40.00;;;;;;5032020;28;20377;-50
2021/04/26 09:07:11;;;;;;;9.83;2.10;;;13.70;35.30;;;;;;5036984;28;20671;-50
2021/04/26 09:09:47;;;;;;;2.70;2.00;;;13.60;37.50;;;;;;5045255;28;20208;-50
2021/04/26 09:12:15;;;;;;;4.83;2.43;;;13.70;35.70;;;;;;5041035;28;20330;-50
2021/04/26 09:14:47;;;;;;;6.83;2.30;;;13.80;36.40;;;;;;5026115;28;20240;-50
2021/04/26 09:17:36;;;;;;;4.40;1.97;;;13.20;35.60;;;;;;5041994;28;20265;-50
2021/04/26 09:20:15;;;;;;;4.43;1.97;;;13.30;36.30;;;;;;5040359;28;20680;-49
2021/04/26 09:22:54;;;;;;;6.70;2.53;;;13.60;37.20;;;;;;5045200;28;20198;-50
2021/04/26 09:25:34;;;;;;;2.33;1.93;;;13.60;39.00;;;;;;5042284;28;20260;-50
2021/04/26 09:28:17;;;;;;;4.80;2.20;;;14.20;36.00;;;;;;5043138;28;20223;-51
2021/04/26 09:30:54;;;;;;;2.77;1.90;;;14.30;33.10;;;;;;5041992;28;20214;-50
2021/04/26 09:33:29;;;;;;;5.33;2.03;;;14.70;30.30;;;;;;5043742;28;20258;-50
2021/04/26 09:35:59;;;;;;;5.17;2.03;;;14.00;31.40;;;;;;5042802;28;20260;-50
2021/04/26 09:38:35;;;;;;;5.87;3.20;;;13.90;31.80;;;;;;5038954;28;20245;-49
2021/04/26 09:41:18;;;;;;;6.37;2.50;;;14.20;28.10;;;;;;5038215;28;20231;-50
2021/04/26 09:43:51;;;;;;;3.97;2.17;;;14.10;29.00;;;;;;5035663;28;20273;-50
2021/04/26 09:46:20;;;;;;;4.67;2.43;;;14.30;28.00;;;;;;5035009;28;20220;-50
2021/04/26 09:48:47;;;;;;;3.10;2.00;;;14.10;27.30;;;;;;5040406;28;20282;-51
2021/04/26 09:51:23;;;;;;;2.27;1.87;;;14.20;28.30;;;;;;5035957;28;20641;-50
2021/04/26 09:53:52;;;;;;;4.93;2.23;;;14.20;24.90;;;;;;5036637;28;20187;-50
2021/04/26 09:56:45;;;;;;;4.83;2.27;;;14.60;26.60;;;;;;5034339;28;20296;-51
2021/04/26 09:59:15;;;;;;;5.17;2.57;;;14.70;24.10;;;;;;5032894;28;20204;-50
2021/04/26 10:01:43;;;;;;;5.77;2.67;;;14.60;25.30;;;;;;5033560;28;20193;-50
2021/04/26 10:04:11;;;;;;;4.97;2.37;;;15.00;22.10;;;;;;5034566;28;20197;-50
2021/04/26 10:06:39;;;;;;;3.10;2.37;;;14.20;21.70;;;;;;5031977;28;20230;-51
2021/04/26 10:09:07;;;;;;;2.90;2.40;;;14.20;20.50;;;;;;5037219;28;20186;-50
2021/04/26 10:11:36;;;;;;;4.23;2.30;;;14.60;19.00;;;;;;5029520;28;20305;-50
2021/04/26 10:14:09;;;;;;;5.47;2.50;;;14.70;20.40;;;;;;5030308;28;20565;-49
2021/04/26 10:16:55;;;;;;;2.93;2.30;;;14.50;18.30;;;;;;5032274;28;20249;-50
2021/04/26 10:19:44;;;;;;;3.73;2.40;;;14.60;18.60;;;;;;5031063;28;20207;-50
2021/04/26 10:22:12;;;;;;;3.33;2.10;;;15.30;15.60;;;;;;5039480;28;20207;-50
2021/04/26 10:24:52;;;;;;;5.73;2.40;;;14.80;16.40;;;;;;5034476;28;20237;-50
2021/04/26 10:27:37;;;;;;;2.50;2.20;;;15.20;13.30;;;;;;5037404;28;20224;-50
2021/04/26 10:30:14;;;;;;;4.43;2.60;;;15.00;13.40;;;;;;5029754;28;20523;-51
2021/04/26 10:33:05;;;;;;;4.47;2.70;;;14.80;14.40;;;;;;5032501;28;20226;-50
2021/04/26 10:35:47;;;;;;;3.93;2.63;;;15.20;11.60;;;;;;5035672;28;20309;-50
2021/04/26 10:38:34;;;;;;;5.93;2.50;;;15.00;11.50;;;;;;5031491;28;20291;-50
2021/04/26 10:41:02;;;;;;;3.37;2.73;;;14.60;11.00;;;;;;5035794;28;20664;-49
2021/04/26 10:43:31;;;;;;;5.23;2.83;;;14.40;12.10;;;;;;5038412;28;20570;-49
2021/04/26 10:46:15;;;;;;;7.97;2.77;;;14.50;10.70;;;;;;5036036;28;20656;-50
2021/04/26 10:49:08;;;;;;;3.07;2.30;;;14.80;10.60;;;;;;5035587;28;20209;-50
2021/04/26 10:51:36;;;;;;;8.40;3.00;;;15.20;8.90;;;;;;5035012;28;20216;-50
2021/04/26 10:54:05;;;;;;;5.63;2.57;;;15.40;7.00;;;;;;5039680;28;20537;-49
2021/04/26 10:56:34;;;;;;;4.37;2.70;;;15.50;6.80;;;;;;5035661;28;20499;-50
2021/04/26 10:59:16;;;;;;;4.73;3.20;;;15.60;4.10;;;;;;5039475;28;20213;-50
2021/04/26 11:01:50;;;;;;;6.13;2.67;;;15.60;4.50;;;;;;5033451;28;20216;-50
2021/04/26 11:04:17;;;;;;;4.40;2.87;;;16.00;1.10;;;;;;5047768;28;20290;-50
2021/04/26 11:07:21;;;;;;;3.67;2.80;;;16.40;1.00;;;;;;5043385;28;20673;-51
2021/04/26 11:09:49;;;;;;;3.47;2.30;;;16.50;1.00;;;;;;5045044;28;20201;-50
2021/04/26 11:12:30;;;;;;;4.33;2.27;;;16.20;1.40;;;;;;5031112;28;20259;-50
2021/04/26 11:15:20;;;;;;;4.27;2.83;;;15.90;1.00;;;;;;5030111;28;20681;-50
2021/04/26 11:17:47;;;;;;;4.17;2.57;;;16.40;1.00;;;;;;5029523;28;20218;-50
2021/04/26 11:20:20;;;;;;;4.07;2.60;;;16.50;1.00;;;;;;5036200;28;20209;-50
2021/04/26 11:22:47;;;;;;;7.30;2.77;;;16.50;1.00;;;;;;5042856;28;20203;-50
2021/04/26 11:25:42;;;;;;;3.27;2.47;;;16.10;1.00;;;;;;5036647;28;20197;-49
2021/04/26 11:28:11;;;;;;;7.13;2.67;;;16.60;1.00;;;;;;5037270;28;20346;-50
2021/04/26 11:30:48;;;;;;;5.43;2.30;;;16.40;1.00;;;;;;5034911;28;20228;-49
2021/04/26 11:33:17;;;;;;;8.27;2.70;;;16.10;1.00;;;;;;5030149;28;20576;-51
2021/04/26 11:36:07;;;;;;;5.30;2.90;;;16.10;1.00;;;;;;5040046;28;20751;-50
2021/04/26 11:38:35;;;;;;;4.07;2.17;;;16.40;1.00;;;;;;5032132;28;20227;-50
2021/04/26 11:41:02;;;;;;;4.00;2.57;;;16.80;1.00;;;;;;5035351;28;20251;-51
2021/04/26 11:43:29;;;;;;;3.00;2.10;;;17.00;1.00;;;;;;5032803;28;20298;-50
2021/04/26 11:45:56;;;;;;;2.80;2.50;;;17.00;1.00;;;;;;5036067;28;20248;-49
2021/04/26 11:48:25;;;;;;;3.83;2.10;;;17.80;1.00;;;;;;5037145;28;20268;-50
2021/04/26 11:50:51;;;;;;;3.13;2.80;;;17.40;1.00;;;;;;5038170;28;20261;-50
2021/04/26 11:53:29;;;;;;;20.40;4.03;;;17.20;1.00;;;;;;5031130;28;20203;-50
2021/04/26 11:56:09;;;;;;;6.10;2.77;;;17.80;1.00;;;;;;5032066;28;20253;-50
2021/04/26 11:58:35;;;;;;;6.10;2.77;;;17.70;1.00;;;;;;5040302;28;20243;-50
2021/04/26 12:01:07;;;;;;;3.93;2.93;;;17.60;1.00;;;;;;5033536;28;20224;-50
2021/04/26 12:03:54;;;;;;;4.47;2.60;;;17.40;1.00;;;;;;5035151;28;21132;-50
2021/04/26 12:06:22;;;;;;;4.23;1.97;;;17.10;1.00;;;;;;5034066;28;20588;-50
2021/04/26 12:08:48;;;;;;;5.43;2.93;;;18.00;1.00;;;;;;5030729;28;20265;-50
2021/04/26 12:11:19;;;;;;;3.97;2.40;;;17.70;1.00;;;;;;5034291;28;20206;-50
2021/04/26 12:14:10;;;;;;;4.30;2.43;;;17.30;1.00;;;;;;5031510;28;20231;-50
2021/04/26 12:16:38;;;;;;;5.17;2.47;;;17.30;1.00;;;;;;5037516;28;20591;-50
2021/04/26 12:19:05;;;;;;;3.90;2.50;;;17.80;1.00;;;;;;5038112;28;20211;-50
2021/04/26 12:21:34;;;;;;;5.73;2.23;;;17.30;1.00;;;;;;5030985;28;20193;-50
2021/04/26 12:24:01;;;;;;;4.73;2.47;;;17.30;1.00;;;;;;5034973;28;20255;-50
2021/04/26 12:26:27;;;;;;;2.60;2.07;;;17.10;1.00;;;;;;5042504;28;20224;-49
2021/04/26 12:28:54;;;;;;;3.87;2.70;;;17.30;1.00;;;;;;5033349;28;20215;-50
2021/04/26 12:31:25;;;;;;;5.17;2.43;;;17.30;1.00;;;;;;5030128;28;20937;-50
2021/04/26 12:33:52;;;;;;;4.23;2.50;;;17.40;1.00;;;;;;5033984;28;20662;-50
2021/04/26 12:36:19;;;;;;;2.87;2.10;;;17.90;1.00;;;;;;5038727;28;20235;-50
2021/04/26 12:38:52;;;;;;;4.63;2.63;;;18.20;1.00;;;;;;5033977;28;20242;-50
2021/04/26 12:41:18;;;;;;;5.77;2.70;;;18.30;1.00;;;;;;5029565;28;20232;-50
2021/04/26 12:43:52;;;;;;;3.23;2.23;;;17.10;1.00;;;;;;5036649;28;20207;-51
2021/04/26 12:46:20;;;;;;;3.27;2.20;;;17.00;1.00;;;;;;5033103;28;20193;-51
2021/04/26 12:48:47;;;;;;;3.13;2.30;;;16.80;1.00;;;;;;5033021;28;20211;-50
2021/04/26 12:51:30;;;;;;;5.73;2.50;;;17.40;1.00;;;;;;5027592;28;20210;-51
2021/04/26 12:54:10;;;;;;;3.90;2.23;;;17.40;1.00;;;;;;5036797;28;20296;-51
2021/04/26 12:56:37;;;;;;;5.53;2.50;;;17.10;1.00;;;;;;5033884;28;20211;-51
2021/04/26 12:59:04;;;;;;;5.13;2.53;;;17.90;1.00;;;;;;5033808;28;20273;-50
2021/04/26 13:01:30;;;;;;;4.13;2.30;;;17.80;1.00;;;;;;5033751;28;20195;-51
2021/04/26 13:04:00;;;;;;;2.43;2.10;;;17.60;1.00;;;;;;5037427;28;20201;-50
2021/04/26 13:06:42;;;;;;;4.33;2.00;;;17.90;1.00;;;;;;5021438;28;20302;-50
2021/04/26 13:09:13;;;;;;;5.23;2.27;;;18.00;1.00;;;;;;5036187;28;20281;-51